Pagina principale
METAR-TAF:

METAR-TAF

Aeroporti :

Pécs, Ungheria

latitudine: 46-06N, longitudine: 018-14E, altezza: 201 m

Osservazione

Il bollettino è stato emesso 33 minuti fa, alle 11:45 UTC
Vento 3 kt da est, variando fra est/nord-est e sud/sud-est
Temperature 11°C
Umidità 62%
Pressione 1023 hPa
Visibilità 10 km o più
nessuna nube inferiore a 1500 m e nessun cumulonembo

METAR: LHPP 261145Z AUTO 09003KT 060V150 CAVOK 11/04 Q1023

Ora: 14:18 (12:18 UTC)

Previsione

Il bollettino è stato emesso 1 ora e 3 minuti fa, alle 11:15 UTC
Previsione valida dal 26 alle 12 UTC al 26 alle 21 UTC
Vento 3 kt da direzioni variabili
Visibilità 10 km o più
nessuna nube inferiore a 1500 m e nessun cumulonembo
Probabilità 30% :
Temporaneamente
dal 26 alle 19 UTC al 26 alle 21 UTC
Visibilità: 5000 m
foschia

TAF: LHPP 261115Z 2612/2621 VRB03KT CAVOK PROB30 TEMPO 2619/2621 5000 BR

Osservazioni e previsioni meteorologiche di più di 4000 aeroporti (messaggi METAR e TAF).

Le stazioni disponibili sono rappresentate dai dischi gialli e rossi sulla carta.

Puntare il mouse per vedere il nome della stazione.

Clicca sopra per visualizzare le osservazioni e previsioni meteorologiche.

Per cambiare la mappa : fare clic sui pulsanti verdi con una croce nera per ingrandire, il pulsante verde con un trattino per diminuire, o sulla freccia verde per le mappe adiacenti.


METAR-TAF: